createdAt,value
2018-02-13T00:03:51.974Z,3.07
2018-02-13T00:07:54.514Z,2.50
2018-02-13T00:11:57.024Z,2.67
2018-02-13T00:16:00.329Z,2.83
2018-02-13T00:20:03.617Z,3.40
2018-02-13T00:24:06.147Z,2.73
2018-02-13T00:28:08.675Z,2.90
2018-02-13T00:32:11.216Z,2.73
2018-02-13T00:36:13.724Z,2.63
2018-02-13T00:40:16.248Z,2.13
2018-02-13T00:44:18.767Z,3.03
2018-02-13T00:48:21.283Z,2.90
2018-02-13T00:52:23.816Z,3.63
2018-02-13T00:56:27.119Z,3.37
2018-02-13T01:00:30.250Z,4.97
2018-02-13T01:04:32.764Z,3.93
2018-02-13T01:08:35.297Z,3.30
2018-02-13T01:12:38.658Z,3.47
2018-02-13T01:16:41.991Z,3.70
2018-02-13T01:20:44.507Z,3.83
2018-02-13T01:24:47.806Z,4.00
2018-02-13T01:28:51.149Z,3.30
2018-02-13T01:32:53.654Z,3.47
2018-02-13T01:36:56.173Z,3.00
2018-02-13T01:40:59.748Z,3.37
2018-02-13T01:45:02.443Z,4.00
2018-02-13T01:49:04.978Z,4.20
2018-02-13T01:53:07.497Z,3.80
2018-02-13T01:57:10.059Z,4.27
2018-02-13T02:01:12.587Z,4.10
2018-02-13T02:05:15.128Z,4.43
2018-02-13T02:09:17.640Z,4.63
2018-02-13T02:13:20.180Z,5.67
2018-02-13T02:17:23.465Z,6.33
2018-02-13T02:21:25.998Z,6.93
2018-02-13T02:25:28.534Z,7.27
2018-02-13T02:29:31.041Z,8.60
2018-02-13T02:33:34.394Z,8.27
2018-02-13T02:37:36.887Z,8.77
2018-02-13T02:41:39.408Z,8.67
2018-02-13T02:45:42.698Z,9.10
2018-02-13T02:49:45.250Z,9.10
2018-02-13T02:53:47.765Z,8.17
2018-02-13T02:57:50.316Z,8.03
2018-02-13T03:01:52.841Z,9.10
2018-02-13T03:05:55.352Z,8.10
2018-02-13T03:09:58.640Z,8.00
2018-02-13T03:14:01.167Z,7.33
2018-02-13T03:18:03.688Z,7.67
2018-02-13T03:22:06.223Z,9.10
2018-02-13T03:26:08.748Z,7.57
2018-02-13T03:30:11.289Z,7.30
2018-02-13T03:34:13.809Z,7.70
2018-02-13T03:38:16.341Z,8.70
2018-02-13T03:42:19.635Z,8.73
2018-02-13T03:46:22.231Z,7.87
2018-02-13T03:50:24.768Z,7.97
2018-02-13T03:54:27.296Z,7.83
2018-02-13T03:58:29.868Z,7.47
2018-02-13T04:02:32.387Z,7.93
2018-02-13T04:06:35.666Z,7.93
2018-02-13T04:10:38.195Z,8.07
2018-02-13T04:14:40.696Z,7.03
2018-02-13T04:18:43.221Z,7.63
2018-02-13T04:22:45.745Z,4.70
2018-02-13T04:26:48.269Z,3.67
2018-02-13T04:30:50.780Z,4.03
2018-02-13T04:34:53.311Z,3.57
2018-02-13T04:38:55.831Z,3.13
2018-02-13T04:42:58.377Z,2.63
2018-02-13T04:47:00.883Z,3.30
2018-02-13T04:51:03.415Z,3.73
2018-02-13T04:55:06.889Z,3.90
2018-02-13T04:59:09.429Z,4.20
2018-02-13T05:03:12.719Z,4.63
2018-02-13T05:07:15.243Z,4.97
2018-02-13T05:11:17.764Z,5.03
2018-02-13T05:15:21.078Z,6.33
2018-02-13T05:19:23.618Z,8.77
2018-02-13T05:23:26.156Z,11.93
2018-02-13T05:27:28.752Z,11.93
2018-02-13T05:31:31.291Z,12.90
2018-02-13T05:35:33.818Z,12.43
2018-02-13T05:39:36.401Z,15.00
2018-02-13T05:43:38.908Z,15.80
2018-02-13T05:47:42.214Z,19.43
2018-02-13T05:51:45.507Z,20.37
2018-02-13T05:55:48.787Z,21.03
2018-02-13T05:59:51.333Z,23.43
2018-02-13T06:03:53.839Z,24.40
2018-02-13T06:07:56.389Z,21.00
2018-02-13T06:11:58.904Z,21.83
2018-02-13T06:16:01.440Z,23.40
2018-02-13T06:20:04.823Z,22.80
2018-02-13T06:24:07.353Z,24.17
2018-02-13T06:28:09.880Z,22.87
2018-02-13T06:32:12.451Z,23.90
2018-02-13T06:36:14.990Z,25.07
2018-02-13T06:40:18.301Z,25.83
2018-02-13T06:44:21.597Z,24.37
2018-02-13T06:48:24.118Z,25.30
2018-02-13T06:52:26.711Z,28.03
2018-02-13T06:56:29.228Z,26.43
2018-02-13T07:00:31.771Z,25.13
2018-02-13T07:04:34.297Z,26.10
2018-02-13T07:08:36.842Z,22.67
2018-02-13T07:12:39.368Z,24.50
2018-02-13T07:16:42.701Z,23.30
2018-02-13T07:20:45.241Z,23.57
2018-02-13T07:24:47.801Z,22.47
2018-02-13T07:28:50.416Z,22.50
2018-02-13T07:32:52.978Z,24.80
2018-02-13T07:36:55.495Z,23.60
2018-02-13T07:40:58.038Z,22.20
2018-02-13T07:45:01.322Z,21.23
2018-02-13T07:49:03.871Z,22.40
2018-02-13T07:53:06.380Z,20.53
2018-02-13T07:57:08.914Z,21.30
2018-02-13T08:01:11.421Z,19.00
2018-02-13T08:05:13.956Z,18.30
2018-02-13T08:09:17.259Z,15.67
2018-02-13T08:13:20.592Z,13.20
2018-02-13T08:17:23.106Z,10.00
2018-02-13T08:21:25.634Z,8.97
2018-02-13T08:25:28.146Z,8.90
2018-02-13T08:29:30.690Z,8.43
2018-02-13T08:33:33.195Z,7.53
2018-02-13T08:37:36.488Z,7.93
2018-02-13T08:41:39.029Z,7.40
2018-02-13T08:45:41.560Z,6.83
2018-02-13T08:49:44.099Z,6.07
2018-02-13T08:53:46.621Z,6.67
2018-02-13T08:57:49.143Z,6.43
2018-02-13T09:01:52.440Z,6.10
2018-02-13T09:05:55.722Z,6.53
2018-02-13T09:09:58.267Z,6.20
2018-02-13T09:14:00.783Z,6.47
2018-02-13T09:18:03.310Z,6.10
2018-02-13T09:22:06.597Z,6.40
2018-02-13T09:26:09.880Z,6.20
2018-02-13T09:30:12.393Z,6.57
2018-02-13T09:34:15.749Z,6.87
2018-02-13T09:38:18.257Z,7.10
2018-02-13T09:42:20.795Z,9.40
2018-02-13T09:46:23.371Z,11.83
2018-02-13T09:50:26.506Z,7.27
2018-02-13T09:54:29.041Z,7.17
2018-02-13T09:58:33.144Z,7.60
2018-02-13T10:02:35.655Z,7.00
2018-02-13T10:06:38.964Z,7.97
2018-02-13T10:10:42.254Z,7.80
2018-02-13T10:14:45.566Z,7.93
2018-02-13T10:18:48.832Z,8.60
2018-02-13T10:22:51.643Z,8.40
2018-02-13T10:26:55.070Z,8.37
2018-02-13T10:30:58.377Z,8.57
2018-02-13T10:35:00.885Z,9.10
2018-02-13T10:39:03.430Z,9.87
2018-02-13T10:43:06.704Z,8.93
2018-02-13T10:47:09.243Z,8.23
2018-02-13T10:51:11.884Z,8.43
2018-02-13T10:55:14.423Z,9.47
2018-02-13T10:59:16.943Z,8.73
2018-02-13T11:03:19.460Z,9.23
2018-02-13T11:07:21.978Z,9.50
2018-02-13T11:11:24.534Z,8.53
2018-02-13T11:15:27.037Z,9.87
2018-02-13T11:19:30.348Z,9.50
2018-02-13T11:23:33.003Z,10.43
2018-02-13T11:27:35.576Z,10.30
2018-02-13T11:31:38.085Z,10.57
2018-02-13T11:35:40.661Z,10.77
2018-02-13T11:39:43.185Z,10.37
2018-02-13T11:43:45.716Z,10.80
2018-02-13T11:47:48.250Z,12.27
2018-02-13T11:51:51.546Z,11.60
2018-02-13T11:55:54.857Z,11.83
2018-02-13T11:59:58.171Z,13.10
2018-02-13T12:04:00.740Z,13.63
2018-02-13T12:08:04.049Z,12.00
2018-02-13T12:12:07.352Z,14.43
2018-02-13T12:16:10.649Z,12.87
2018-02-13T12:20:13.979Z,12.10
2018-02-13T12:24:16.780Z,11.77
2018-02-13T12:28:19.636Z,13.37
2018-02-13T12:32:23.021Z,12.80
2018-02-13T12:36:25.901Z,12.40
2018-02-13T12:40:28.565Z,12.50
2018-02-13T12:44:31.117Z,12.73
2018-02-13T12:48:35.156Z,12.63
2018-02-13T12:52:37.679Z,13.43
2018-02-13T12:56:40.269Z,13.07
2018-02-13T13:00:42.802Z,12.43
2018-02-13T13:04:46.203Z,13.07
2018-02-13T13:08:49.498Z,15.07
2018-02-13T13:12:52.815Z,13.17
2018-02-13T13:16:56.208Z,14.20
2018-02-13T13:20:59.164Z,13.50
2018-02-13T13:25:01.782Z,13.80
2018-02-13T13:29:05.414Z,13.60
2018-02-13T13:33:08.041Z,14.57
2018-02-13T13:37:10.802Z,13.67
2018-02-13T13:41:13.501Z,14.97
2018-02-13T13:45:16.230Z,14.23
2018-02-13T13:49:19.456Z,14.27
2018-02-13T13:53:22.118Z,13.03
2018-02-13T13:57:24.717Z,12.53
2018-02-13T14:01:27.326Z,10.63
2018-02-13T14:05:29.910Z,12.87
2018-02-13T14:09:32.486Z,11.70
2018-02-13T14:13:35.125Z,11.73
2018-02-13T14:17:37.722Z,12.23
2018-02-13T14:21:42.305Z,11.23
2018-02-13T14:25:44.935Z,12.00
2018-02-13T14:29:47.545Z,13.13
2018-02-13T14:33:51.209Z,13.03
2018-02-13T14:37:55.115Z,11.30
2018-02-13T14:42:01.232Z,11.57
2018-02-13T14:46:03.939Z,12.03
2018-02-13T14:50:07.442Z,12.97
2018-02-13T14:54:10.301Z,12.33
2018-02-13T14:58:13.005Z,10.73
2018-02-13T15:02:15.620Z,11.23
2018-02-13T15:06:19.004Z,11.60
2018-02-13T15:10:21.603Z,12.07
2018-02-13T15:14:24.336Z,12.37
2018-02-13T15:18:38.294Z,12.50
2018-02-13T15:22:40.887Z,10.87
2018-02-13T15:26:44.197Z,12.00
2018-02-13T15:30:46.841Z,11.10
2018-02-13T15:34:49.483Z,12.70
2018-02-13T15:38:53.040Z,11.73
2018-02-13T15:42:55.610Z,11.57
2018-02-13T15:47:11.074Z,11.53
2018-02-13T15:51:13.639Z,11.93
2018-02-13T15:55:17.057Z,11.90
2018-02-13T15:59:20.518Z,12.10
2018-02-13T16:03:23.276Z,11.77
2018-02-13T16:07:25.952Z,12.23
2018-02-13T16:11:28.868Z,12.83
2018-02-13T16:15:31.742Z,13.33
2018-02-13T16:19:35.168Z,12.73
2018-02-13T16:23:38.038Z,12.23
2018-02-13T16:27:41.029Z,11.93
2018-02-13T16:31:44.416Z,12.37
2018-02-13T16:35:47.718Z,12.47
2018-02-13T16:39:50.463Z,11.57
2018-02-13T16:43:53.119Z,12.60
2018-02-13T16:47:56.487Z,12.90
2018-02-13T16:51:59.058Z,13.50
2018-02-13T16:56:01.584Z,13.23
2018-02-13T17:00:04.132Z,13.53
2018-02-13T17:04:06.703Z,14.30
2018-02-13T17:08:09.243Z,13.93
2018-02-13T17:12:11.813Z,15.37
2018-02-13T17:16:14.330Z,14.60
2018-02-13T17:20:17.676Z,14.37
2018-02-13T17:24:20.191Z,15.97
2018-02-13T17:28:22.778Z,15.63
2018-02-13T17:32:25.301Z,16.93
2018-02-13T17:36:28.611Z,14.93
2018-02-13T17:40:31.914Z,15.97
2018-02-13T17:44:35.236Z,15.03
2018-02-13T17:48:37.790Z,16.07
2018-02-13T17:52:41.108Z,14.50
2018-02-13T17:56:44.469Z,15.03
2018-02-13T18:00:47.019Z,16.03
2018-02-13T18:04:49.799Z,16.30
2018-02-13T18:08:52.316Z,16.03
2018-02-13T18:12:54.854Z,16.30
2018-02-13T18:16:58.160Z,15.47
2018-02-13T18:21:01.476Z,16.83
2018-02-13T18:25:04.042Z,16.37
2018-02-13T18:29:07.355Z,15.63
2018-02-13T18:33:10.702Z,15.90
2018-02-13T18:37:13.267Z,17.77
2018-02-13T18:41:15.801Z,16.00
2018-02-13T18:45:18.351Z,16.57
2018-02-13T18:49:20.971Z,16.47
2018-02-13T18:53:23.512Z,17.00
2018-02-13T18:57:26.066Z,17.90
2018-02-13T19:01:28.604Z,16.93
2018-02-13T19:05:31.353Z,16.37
2018-02-13T19:09:34.657Z,16.27
2018-02-13T19:13:37.981Z,18.37
2018-02-13T19:17:40.508Z,17.70
2018-02-13T19:21:43.074Z,16.73
2018-02-13T19:25:45.599Z,17.73
2018-02-13T19:29:48.140Z,18.30
2018-02-13T19:33:50.672Z,16.97
2018-02-13T19:37:53.219Z,16.97
2018-02-13T19:41:55.755Z,16.93
2018-02-13T19:45:58.320Z,18.03
2018-02-13T19:50:01.164Z,17.97
2018-02-13T19:54:03.760Z,16.37
2018-02-13T19:58:07.057Z,17.03
2018-02-13T20:02:09.629Z,16.73
2018-02-13T20:06:12.233Z,17.77
2018-02-13T20:10:14.820Z,17.40
2018-02-13T20:14:17.445Z,16.97
2018-02-13T20:18:20.028Z,18.00
2018-02-13T20:22:22.774Z,18.07
2018-02-13T20:26:25.523Z,17.50
2018-02-13T20:30:28.147Z,17.73
2018-02-13T20:34:31.475Z,17.17
2018-02-13T20:38:34.076Z,17.33
2018-02-13T20:42:36.651Z,19.27
2018-02-13T20:46:39.379Z,17.73
2018-02-13T20:50:42.916Z,17.87
2018-02-13T20:54:46.254Z,17.37
2018-02-13T20:58:49.575Z,17.07
2018-02-13T21:02:52.225Z,18.27
2018-02-13T21:06:54.824Z,18.17
2018-02-13T21:10:57.374Z,18.70
2018-02-13T21:14:59.902Z,18.37
2018-02-13T21:19:02.469Z,17.90
2018-02-13T21:23:05.794Z,18.70
2018-02-13T21:27:08.329Z,17.77
2018-02-13T21:31:10.930Z,18.37
2018-02-13T21:35:14.362Z,18.07
2018-02-13T21:39:16.900Z,16.63
2018-02-13T21:43:19.438Z,17.70
2018-02-13T21:47:21.990Z,17.17
2018-02-13T21:51:24.556Z,17.87
2018-02-13T21:55:27.629Z,17.30
2018-02-13T21:59:30.322Z,17.40
2018-02-13T22:03:32.896Z,17.33
2018-02-13T22:07:35.424Z,17.03
2018-02-13T22:11:38.115Z,17.73
2018-02-13T22:15:40.877Z,17.93
2018-02-13T22:19:45.066Z,18.87
2018-02-13T22:23:48.373Z,18.03
2018-02-13T22:27:51.686Z,18.67
2018-02-13T22:31:54.215Z,18.17
2018-02-13T22:35:56.752Z,19.10
2018-02-13T22:40:00.047Z,19.77
2018-02-13T22:44:02.598Z,18.13
2018-02-13T22:48:05.119Z,18.17
2018-02-13T22:52:08.522Z,18.57
2018-02-13T22:56:11.799Z,18.87
2018-02-13T23:00:14.331Z,19.37
2018-02-13T23:04:17.957Z,18.97
2018-02-13T23:08:20.488Z,18.87
2018-02-13T23:12:23.045Z,19.43
2018-02-13T23:16:25.552Z,18.63
2018-02-13T23:20:28.100Z,19.37
2018-02-13T23:24:30.614Z,18.37
2018-02-13T23:28:33.204Z,18.57
2018-02-13T23:32:35.730Z,19.53
2018-02-13T23:36:39.072Z,19.53
2018-02-13T23:40:41.641Z,21.17
2018-02-13T23:44:44.191Z,21.77
2018-02-13T23:48:46.758Z,20.33
2018-02-13T23:52:49.286Z,20.43
2018-02-13T23:56:51.851Z,20.33
